Portada
METAR-TAF:

METAR-TAF

Aeroports :

Laoag, Filipines

latitud: 18-11N, longitud: 120-32E, altitud: 4 m

Observació

L'informe es va fer fa 55 minuts, a les 05:00 UTC
Vent 12 kt del Nord-Est, variant entre Nord/Nord-Est i Est
Temperatura 33°C
Humitat 56%
Pressió 1011 hPa
Visibilitat 10 km o més
Escasses núvols a una alçada de 1800 ft
Núvols disperses a una alçada de 10000 ft

METAR: RPLI 140500Z 05012KT 020V080 9999 FEW018 SCT100 33/23 Q1011 NOSIG RMK A2985

Hora: 13:55 (05:55 UTC)

Pronòstic

L'informe es va fer fa 55 minuts, a les 05:00 UTC
Pronòstic vàlid del 14 a les 06 UTC al 15 a les 06 UTC
Vent 10 kt del Nord-Est
Visibilitat 10 km o més
Escasses núvols a una alçada de 1800 ft
Temporalment
l' 14 a les 06 UTC al 14 a les 12 UTC
Vent 12 kt del Nord/Nord-Est amb ràfegues de 22 kt
Escasses núvols a una alçada de 1700 ft, Cumulus congestus.
Cel ennuvolat a una alçada de 28000 ft

TAF: RPLI 140500Z 1406/1506 04010KT 9999 FEW018 TEMPO 1406/1412 02012G22KT FEW017TCU BKN280

Observacions i pronòstics meteorològics de més de 4000 aeroports (METAR i TAF).

Les estacions disponibles són els punts grocs i vermells al mapa.

Posi el ratolí al punt desitjat per veure el nom de l'estació.

Feu clic per veure les observacions i els pronòstics meteorològics.

Per canviar el mapa: feu clic els botons verds amb una creu de color negre per apropar; al botó verd amb un guió per allunyar la imatge; o en les fletxes verdes per a mapes adjacents.


METAR-TAF: